Time;durP1;ratioP1;P1;durP2;ratioP2;P2;SDS_P1;SDS_P2;PMS_P1;PMS_P2;Temp;Humidity;BMP_temperature;BMP_pressure;BME280_temperature;BME280_humidity;BME280_pressure;Samples;Min_cycle;Max_cycle;Signal;HPM_P1;HPM_P2
2022/03/05 00:00:20;;;;;;;13.02;6.70;;;0.40;99.90;;;;;;5050287;28;20045;-73
2022/03/05 00:02:46;;;;;;;10.88;6.10;;;0.40;99.90;;;;;;5065560;28;20043;-73
2022/03/05 00:05:13;;;;;;;13.77;6.95;;;0.40;99.90;;;;;;5051077;28;20037;-73
2022/03/05 00:07:39;;;;;;;10.55;6.32;;;0.30;99.90;;;;;;5049693;28;20577;-72
2022/03/05 00:10:05;;;;;;;11.43;6.20;;;0.30;99.90;;;;;;5050447;28;20124;-73
2022/03/05 00:12:30;;;;;;;11.70;6.35;;;0.30;99.90;;;;;;5050040;28;20379;-73
2022/03/05 00:14:56;;;;;;;11.68;6.70;;;0.30;99.90;;;;;;5051615;28;20041;-72
2022/03/05 00:17:22;;;;;;;11.68;6.80;;;0.20;99.90;;;;;;5049884;28;20082;-72
2022/03/05 00:19:47;;;;;;;13.13;6.82;;;0.20;99.90;;;;;;5068081;28;20037;-73
2022/03/05 00:22:13;;;;;;;13.25;6.95;;;0.20;99.90;;;;;;5067378;28;20033;-72
2022/03/05 00:24:39;;;;;;;14.73;7.40;;;0.20;99.90;;;;;;5067120;28;20038;-72
2022/03/05 00:27:04;;;;;;;11.38;6.43;;;0.20;99.90;;;;;;5051353;28;20033;-72
2022/03/05 00:29:30;;;;;;;12.77;5.78;;;0.20;99.90;;;;;;5050374;28;20097;-73
2022/03/05 00:31:56;;;;;;;13.52;6.47;;;0.20;99.90;;;;;;5050400;28;20041;-72
2022/03/05 00:34:22;;;;;;;11.48;6.45;;;0.10;99.90;;;;;;5064216;28;20060;-72
2022/03/05 00:36:48;;;;;;;13.68;6.25;;;0.10;99.90;;;;;;5050620;28;20443;-72
2022/03/05 00:39:13;;;;;;;14.88;6.53;;;0.00;99.90;;;;;;5051591;28;20037;-72
2022/03/05 00:41:39;;;;;;;11.30;6.35;;;0.00;99.90;;;;;;5031998;28;20028;-72
2022/03/05 00:44:05;;;;;;;12.07;6.20;;;0.00;99.90;;;;;;5034964;28;20040;-72
2022/03/05 00:46:30;;;;;;;10.07;5.70;;;-0.10;99.90;;;;;;5050310;28;20048;-73
2022/03/05 00:48:56;;;;;;;13.00;6.55;;;-0.20;99.90;;;;;;5051228;28;20033;-72
2022/03/05 00:51:21;;;;;;;13.63;7.07;;;-0.20;99.90;;;;;;5049943;28;20401;-72
2022/03/05 00:53:48;;;;;;;11.07;6.32;;;-0.30;99.90;;;;;;5034605;28;20124;-72
2022/03/05 00:56:14;;;;;;;11.18;6.20;;;-0.30;99.90;;;;;;5048501;28;20409;-72
2022/03/05 00:58:39;;;;;;;12.20;6.75;;;-0.30;99.90;;;;;;5055094;28;20041;-72
2022/03/05 01:01:05;;;;;;;11.63;6.32;;;-0.30;99.90;;;;;;5032999;28;20037;-73
2022/03/05 01:03:30;;;;;;;11.90;6.38;;;-0.20;99.90;;;;;;5054573;28;20122;-72
2022/03/05 01:05:57;;;;;;;13.00;6.60;;;-0.20;99.90;;;;;;5052893;28;20091;-72
2022/03/05 01:08:23;;;;;;;11.63;6.45;;;-0.30;99.90;;;;;;5054816;28;20462;-72
2022/03/05 01:10:48;;;;;;;11.88;5.93;;;-0.30;99.90;;;;;;5054119;28;20060;-73
2022/03/05 01:13:14;;;;;;;12.95;6.55;;;-0.30;99.90;;;;;;5071271;28;20087;-72
2022/03/05 01:15:40;;;;;;;11.77;6.15;;;-0.30;99.90;;;;;;5036214;28;20401;-73
2022/03/05 01:18:05;;;;;;;10.57;6.00;;;-0.30;99.90;;;;;;5054352;28;20036;-72
2022/03/05 01:20:31;;;;;;;10.80;5.93;;;-0.40;99.90;;;;;;5070423;28;20041;-72
2022/03/05 01:22:56;;;;;;;13.55;6.32;;;-0.30;99.90;;;;;;5053372;28;20044;-72
2022/03/05 01:25:22;;;;;;;11.55;5.80;;;-0.40;99.90;;;;;;5054219;28;20080;-72
2022/03/05 01:27:47;;;;;;;13.40;6.05;;;-0.40;99.90;;;;;;5037184;28;20044;-72
2022/03/05 01:30:13;;;;;;;11.55;5.82;;;-0.40;99.90;;;;;;5051396;28;20040;-73
2022/03/05 01:32:39;;;;;;;15.38;6.20;;;-0.40;99.90;;;;;;5021293;28;20403;-72
2022/03/05 01:35:05;;;;;;;10.20;5.65;;;-0.40;99.90;;;;;;5033906;28;20132;-72
2022/03/05 01:37:31;;;;;;;11.35;6.20;;;-0.40;99.90;;;;;;5032676;28;20043;-72
2022/03/05 01:39:57;;;;;;;10.95;6.22;;;-0.40;99.90;;;;;;5054225;28;20049;-72
2022/03/05 01:42:24;;;;;;;11.82;5.65;;;-0.30;99.90;;;;;;5053380;28;20095;-72
2022/03/05 01:44:51;;;;;;;11.85;5.70;;;-0.30;99.90;;;;;;5070596;28;20045;-72
2022/03/05 01:47:17;;;;;;;13.20;5.95;;;-0.30;99.90;;;;;;5036747;28;20082;-72
2022/03/05 01:49:43;;;;;;;12.45;6.53;;;-0.30;99.90;;;;;;5053793;28;20039;-72
2022/03/05 01:52:09;;;;;;;12.43;6.30;;;-0.30;99.90;;;;;;5053168;28;20134;-72
2022/03/05 01:54:35;;;;;;;11.32;6.65;;;-0.30;99.90;;;;;;5037028;28;20492;-72
2022/03/05 01:57:01;;;;;;;10.82;6.20;;;-0.30;99.90;;;;;;5026813;28;20041;-72
2022/03/05 01:59:27;;;;;;;11.73;6.22;;;-0.30;99.90;;;;;;5052368;28;20049;-72
2022/03/05 02:01:52;;;;;;;10.85;5.88;;;-0.30;99.90;;;;;;5051203;28;20489;-72
2022/03/05 02:04:18;;;;;;;12.82;6.45;;;-0.30;99.90;;;;;;5053540;28;20044;-72
2022/03/05 02:06:44;;;;;;;11.95;5.90;;;-0.20;99.90;;;;;;5052708;28;20047;-71
2022/03/05 02:09:10;;;;;;;11.20;5.80;;;-0.20;99.90;;;;;;5052787;28;20409;-72
2022/03/05 02:11:36;;;;;;;11.27;5.90;;;-0.20;99.90;;;;;;5052437;28;20420;-72
2022/03/05 02:14:02;;;;;;;11.25;5.50;;;-0.20;99.90;;;;;;5033428;28;20041;-71
2022/03/05 02:16:29;;;;;;;11.90;5.80;;;-0.20;99.90;;;;;;5025980;28;20127;-71
2022/03/05 02:18:55;;;;;;;11.85;5.70;;;-0.30;99.90;;;;;;5036586;28;20046;-71
2022/03/05 02:21:25;;;;;;;12.25;6.00;;;-0.30;99.90;;;;;;5036225;28;20033;-71
2022/03/05 02:23:52;;;;;;;11.98;6.13;;;-0.30;99.90;;;;;;5053197;28;20037;-71
2022/03/05 02:26:18;;;;;;;10.52;5.72;;;-0.30;99.90;;;;;;5051024;28;20049;-71
2022/03/05 02:28:43;;;;;;;11.82;6.07;;;-0.20;99.90;;;;;;5053022;28;20128;-71
2022/03/05 02:31:10;;;;;;;12.57;5.82;;;-0.30;99.90;;;;;;5050322;28;20119;-71
2022/03/05 02:33:35;;;;;;;12.00;6.43;;;-0.30;99.90;;;;;;5036170;28;20091;-71
2022/03/05 02:36:02;;;;;;;11.55;6.50;;;-0.30;99.90;;;;;;5051889;28;20471;-72
2022/03/05 02:38:28;;;;;;;12.10;6.15;;;-0.40;99.90;;;;;;5053047;28;20397;-71
2022/03/05 02:40:54;;;;;;;11.77;6.47;;;-0.40;99.90;;;;;;5052267;28;20060;-71
2022/03/05 02:43:21;;;;;;;11.57;5.80;;;-0.40;99.90;;;;;;5052718;28;20036;-71
2022/03/05 02:45:47;;;;;;;12.75;6.10;;;-0.50;99.90;;;;;;5035374;28;20045;-71
2022/03/05 02:48:15;;;;;;;11.80;5.93;;;-0.50;99.90;;;;;;5052585;28;20053;-71
2022/03/05 02:50:42;;;;;;;9.82;5.28;;;-0.50;99.90;;;;;;5052034;28;20401;-71
2022/03/05 02:53:08;;;;;;;13.60;6.63;;;-0.50;99.90;;;;;;5052069;28;20044;-71
2022/03/05 02:55:34;;;;;;;11.82;5.88;;;-0.60;99.90;;;;;;5035475;28;20041;-71
2022/03/05 02:58:00;;;;;;;13.50;6.97;;;-0.60;99.90;;;;;;5052257;28;20108;-71
2022/03/05 03:00:26;;;;;;;12.25;6.25;;;-0.70;99.90;;;;;;5034863;28;20043;-71
2022/03/05 03:02:52;;;;;;;12.05;6.68;;;-0.70;99.90;;;;;;5052277;28;20041;-71
2022/03/05 03:05:18;;;;;;;12.70;6.90;;;-0.70;99.90;;;;;;5069331;28;20055;-71
2022/03/05 03:07:44;;;;;;;10.93;6.20;;;-0.70;99.90;;;;;;5048878;28;20102;-71
2022/03/05 03:10:12;;;;;;;11.85;6.38;;;-0.80;99.90;;;;;;5015706;28;20486;-71
2022/03/05 03:12:39;;;;;;;13.77;6.38;;;-0.80;99.90;;;;;;5048566;28;20036;-71
2022/03/05 03:15:07;;;;;;;12.13;6.70;;;-0.70;99.90;;;;;;5052093;28;20080;-71
2022/03/05 03:17:44;;;;;;;14.43;7.18;;;-0.80;99.90;;;;;;5051477;28;20037;-71
2022/03/05 03:20:12;;;;;;;12.43;6.32;;;-0.80;99.90;;;;;;5032305;28;20039;-71
2022/03/05 03:22:38;;;;;;;14.23;6.72;;;-0.80;99.90;;;;;;5048523;28;20037;-71
2022/03/05 03:25:04;;;;;;;14.00;7.30;;;-0.90;99.90;;;;;;5052200;28;20045;-71
2022/03/05 03:27:31;;;;;;;13.50;6.93;;;-0.90;99.90;;;;;;5051462;28;20040;-71
2022/03/05 03:29:56;;;;;;;12.38;6.47;;;-0.90;99.90;;;;;;5034893;28;20087;-71
2022/03/05 03:32:22;;;;;;;13.52;6.85;;;-0.80;99.90;;;;;;5050387;28;20049;-71
2022/03/05 03:34:47;;;;;;;13.25;6.55;;;-0.80;99.90;;;;;;5051707;28;20088;-71
2022/03/05 03:37:13;;;;;;;13.13;6.40;;;-0.80;99.90;;;;;;5050318;28;20482;-71
2022/03/05 03:39:39;;;;;;;12.63;6.35;;;-0.80;99.90;;;;;;5035305;28;20084;-71
2022/03/05 03:42:04;;;;;;;13.00;6.32;;;-0.90;99.90;;;;;;5023394;28;20033;-71
2022/03/05 03:44:30;;;;;;;12.07;6.05;;;-0.90;99.90;;;;;;5067082;28;20505;-71
2022/03/05 03:46:56;;;;;;;12.45;6.53;;;-0.80;99.90;;;;;;5057774;28;20064;-71
2022/03/05 03:49:23;;;;;;;13.73;7.40;;;-0.90;99.90;;;;;;5049358;28;20048;-71
2022/03/05 03:51:48;;;;;;;12.57;6.30;;;-0.90;99.90;;;;;;5034307;28;20040;-71
2022/03/05 03:54:14;;;;;;;14.88;6.70;;;-0.80;99.90;;;;;;5034692;28;20033;-71
2022/03/05 03:56:40;;;;;;;13.00;6.35;;;-0.90;99.90;;;;;;5044053;28;20025;-71
2022/03/05 03:59:05;;;;;;;11.93;6.32;;;-0.80;99.90;;;;;;5037773;28;20115;-72
2022/03/05 04:01:31;;;;;;;12.77;6.28;;;-0.90;99.90;;;;;;5030336;28;20045;-71
2022/03/05 04:03:56;;;;;;;12.10;6.07;;;-0.90;99.90;;;;;;5041710;28;20044;-71
2022/03/05 04:06:22;;;;;;;13.00;6.65;;;-0.90;99.90;;;;;;5034688;28;20045;-71
2022/03/05 04:08:47;;;;;;;11.95;6.38;;;-0.90;99.90;;;;;;5048934;28;20037;-71
2022/03/05 04:11:18;;;;;;;11.27;6.25;;;-0.90;99.90;;;;;;5050510;28;20179;-71
2022/03/05 04:13:45;;;;;;;12.80;6.05;;;-0.90;99.90;;;;;;5035347;28;20401;-71
2022/03/05 04:16:11;;;;;;;12.23;5.95;;;-0.90;99.90;;;;;;5050467;28;20040;-71
2022/03/05 04:18:38;;;;;;;10.95;5.95;;;-0.90;99.90;;;;;;5051437;28;20049;-71
2022/03/05 04:21:05;;;;;;;10.95;6.45;;;-0.90;99.90;;;;;;5022959;28;20183;-71
2022/03/05 04:23:31;;;;;;;10.80;6.22;;;-0.90;99.90;;;;;;5035402;28;20402;-71
2022/03/05 04:25:57;;;;;;;11.23;6.25;;;-0.90;99.90;;;;;;5036840;28;20047;-71
2022/03/05 04:28:22;;;;;;;13.90;7.22;;;-1.00;99.90;;;;;;5023789;28;20033;-71
2022/03/05 04:30:48;;;;;;;14.02;6.78;;;-1.00;99.90;;;;;;5039670;28;20048;-71
2022/03/05 04:33:13;;;;;;;11.70;6.22;;;-1.10;99.90;;;;;;5049651;28;20043;-71
2022/03/05 04:35:39;;;;;;;12.73;6.65;;;-1.10;99.90;;;;;;5044602;28;20049;-71
2022/03/05 04:38:04;;;;;;;13.10;7.43;;;-1.10;99.90;;;;;;5071030;28;20103;-71
2022/03/05 04:40:30;;;;;;;13.50;6.90;;;-1.20;99.90;;;;;;5036780;28;20144;-71
2022/03/05 04:42:56;;;;;;;13.90;7.35;;;-1.20;99.90;;;;;;5054479;28;20037;-71
2022/03/05 04:45:22;;;;;;;13.15;6.90;;;-1.30;99.90;;;;;;5067842;28;20071;-71
2022/03/05 04:47:47;;;;;;;15.10;6.90;;;-1.30;99.90;;;;;;5036438;28;20445;-71
2022/03/05 04:50:13;;;;;;;14.95;6.47;;;-1.30;99.90;;;;;;5034820;28;20120;-71
2022/03/05 04:52:39;;;;;;;13.30;7.13;;;-1.30;99.90;;;;;;5036522;28;20037;-71
2022/03/05 04:55:07;;;;;;;13.63;6.63;;;-1.30;99.90;;;;;;5053169;28;20139;-71
2022/03/05 04:57:33;;;;;;;12.75;6.93;;;-1.20;99.90;;;;;;5067333;28;20460;-71
2022/03/05 04:59:58;;;;;;;12.70;6.55;;;-1.10;99.90;;;;;;5052794;28;21506;-71
2022/03/05 05:02:24;;;;;;;12.63;6.25;;;-1.20;99.90;;;;;;5034960;28;20190;-72
2022/03/05 05:04:50;;;;;;;12.65;6.10;;;-1.20;99.90;;;;;;5054440;28;20029;-71
2022/03/05 05:07:15;;;;;;;15.20;7.07;;;-1.20;99.90;;;;;;5068715;28;20084;-71
2022/03/05 05:09:42;;;;;;;11.95;6.53;;;-1.20;99.90;;;;;;5052490;28;20464;-71
2022/03/05 05:12:08;;;;;;;11.63;6.82;;;-1.10;99.90;;;;;;5050361;28;20124;-71
2022/03/05 05:14:34;;;;;;;12.95;7.15;;;-1.20;99.90;;;;;;5054245;28;20044;-71
2022/03/05 05:16:59;;;;;;;12.20;6.47;;;-1.20;99.90;;;;;;5036741;28;20144;-71
2022/03/05 05:19:25;;;;;;;12.65;6.50;;;-1.20;99.90;;;;;;5054511;28;20041;-71
2022/03/05 05:21:59;;;;;;;13.95;7.38;;;-1.20;99.90;;;;;;5053458;28;20068;-71
2022/03/05 05:24:30;;;;;;;12.93;6.25;;;-1.20;99.90;;;;;;5037744;28;20037;-71
2022/03/05 05:26:57;;;;;;;12.95;6.43;;;-1.10;99.90;;;;;;5036786;28;20041;-71
2022/03/05 05:29:23;;;;;;;12.93;5.97;;;-1.10;99.90;;;;;;5051951;28;20425;-71
2022/03/05 05:31:49;;;;;;;11.13;6.18;;;-1.10;99.90;;;;;;5051180;28;20102;-71
2022/03/05 05:34:16;;;;;;;11.88;6.40;;;-1.20;99.90;;;;;;5029829;28;20053;-71
2022/03/05 05:36:41;;;;;;;14.10;6.95;;;-1.20;99.90;;;;;;5043450;28;20041;-72
2022/03/05 05:39:09;;;;;;;12.45;6.53;;;-1.10;99.90;;;;;;5053092;28;20155;-71
2022/03/05 05:41:35;;;;;;;11.00;6.03;;;-1.20;99.90;;;;;;5053313;28;21115;-72
2022/03/05 05:44:06;;;;;;;10.32;5.80;;;-1.10;99.90;;;;;;5050612;28;20033;-71
2022/03/05 05:46:31;;;;;;;11.13;5.75;;;-1.20;99.90;;;;;;5052640;28;20041;-71
2022/03/05 05:48:57;;;;;;;14.82;6.55;;;-1.10;99.90;;;;;;5034543;28;20059;-71
2022/03/05 05:51:24;;;;;;;13.75;6.40;;;-1.10;99.90;;;;;;5052194;28;20064;-71
2022/03/05 05:53:50;;;;;;;13.48;6.90;;;-1.10;99.90;;;;;;5036375;28;20044;-71
2022/03/05 05:56:16;;;;;;;11.38;5.75;;;-1.10;99.90;;;;;;5034470;28;20460;-72
2022/03/05 05:58:41;;;;;;;14.35;6.78;;;-1.10;99.90;;;;;;5035772;28;20040;-71
2022/03/05 06:01:07;;;;;;;13.32;6.32;;;-1.10;99.90;;;;;;5035185;28;20056;-71
2022/03/05 06:03:33;;;;;;;10.75;6.00;;;-1.10;99.90;;;;;;5034842;28;20028;-71
2022/03/05 06:05:59;;;;;;;11.85;6.53;;;-1.10;99.90;;;;;;5042514;28;20056;-71
2022/03/05 06:08:25;;;;;;;12.07;6.18;;;-1.10;99.90;;;;;;5051927;28;20037;-71
2022/03/05 06:10:51;;;;;;;11.15;6.43;;;-1.10;99.90;;;;;;5051383;28;20401;-71
2022/03/05 06:13:18;;;;;;;11.60;6.15;;;-1.10;99.90;;;;;;5068566;28;20526;-71
2022/03/05 06:15:44;;;;;;;12.88;6.50;;;-1.10;99.90;;;;;;5035910;28;20049;-71
2022/03/05 06:18:10;;;;;;;11.45;6.10;;;-1.10;99.90;;;;;;5068897;28;20115;-72
2022/03/05 06:20:36;;;;;;;11.85;6.13;;;-1.00;99.90;;;;;;5053306;28;20036;-71
2022/03/05 06:23:01;;;;;;;11.88;6.15;;;-1.10;99.90;;;;;;5036069;28;20037;-72
2022/03/05 06:25:27;;;;;;;11.25;5.78;;;-1.10;99.90;;;;;;5036537;28;20079;-71
2022/03/05 06:27:53;;;;;;;17.95;6.88;;;-1.10;99.90;;;;;;5052133;28;20080;-71
2022/03/05 06:30:18;;;;;;;13.60;6.45;;;-1.10;99.90;;;;;;5051788;28;20044;-72
2022/03/05 06:32:44;;;;;;;12.32;6.20;;;-1.10;99.90;;;;;;5049795;28;20493;-71
2022/03/05 06:35:10;;;;;;;13.13;6.60;;;-1.10;99.90;;;;;;5051341;28;20049;-71
2022/03/05 06:37:36;;;;;;;11.18;6.07;;;-1.10;99.90;;;;;;5051310;28;20507;-71
2022/03/05 06:40:03;;;;;;;11.73;6.32;;;-1.10;99.90;;;;;;5052102;28;20037;-71
2022/03/05 06:42:28;;;;;;;12.27;6.07;;;-1.10;99.90;;;;;;5023585;28;20041;-71
2022/03/05 06:44:54;;;;;;;13.10;6.82;;;-1.10;99.90;;;;;;5050246;28;20508;-71
2022/03/05 06:47:19;;;;;;;12.38;6.22;;;-1.10;99.90;;;;;;5046846;28;20110;-71
2022/03/05 06:49:45;;;;;;;13.05;6.18;;;-1.10;99.90;;;;;;5032186;28;20107;-71
2022/03/05 06:52:11;;;;;;;13.20;6.97;;;-1.00;99.90;;;;;;5060255;28;20076;-71
2022/03/05 06:54:37;;;;;;;13.52;5.93;;;-1.10;99.90;;;;;;5049844;28;20069;-71
2022/03/05 06:57:03;;;;;;;14.40;6.75;;;-1.00;99.90;;;;;;5063144;28;20045;-71
2022/03/05 06:59:29;;;;;;;13.25;6.63;;;-1.00;99.90;;;;;;5050312;28;20041;-72
2022/03/05 07:01:55;;;;;;;12.93;7.20;;;-1.00;99.90;;;;;;5049921;28;20056;-71
2022/03/05 07:04:21;;;;;;;12.00;6.15;;;-1.00;99.90;;;;;;5034364;28;20029;-71
2022/03/05 07:06:46;;;;;;;12.50;6.38;;;-0.90;99.90;;;;;;5035335;28;20045;-72
2022/03/05 07:09:12;;;;;;;11.90;6.00;;;-0.80;99.90;;;;;;5050599;28;20040;-71
2022/03/05 07:11:38;;;;;;;11.15;5.97;;;-0.70;99.90;;;;;;5050535;28;20421;-72
2022/03/05 07:14:03;;;;;;;11.38;5.65;;;-0.70;99.90;;;;;;5032872;28;20083;-72
2022/03/05 07:16:29;;;;;;;14.90;6.88;;;-0.70;99.90;;;;;;5049312;28;20037;-71
2022/03/05 07:18:54;;;;;;;12.50;6.55;;;-0.70;99.90;;;;;;5052226;28;20037;-71
2022/03/05 07:21:20;;;;;;;10.13;5.82;;;-0.60;99.90;;;;;;5051190;28;20386;-71
2022/03/05 07:23:45;;;;;;;11.73;6.43;;;-0.50;99.90;;;;;;5052129;28;20033;-71
2022/03/05 07:26:11;;;;;;;14.70;7.72;;;-0.50;99.90;;;;;;5050923;28;20110;-71
2022/03/05 07:28:37;;;;;;;11.98;6.43;;;-0.40;99.90;;;;;;5035499;28;20182;-71
2022/03/05 07:31:02;;;;;;;13.10;6.45;;;-0.40;99.90;;;;;;5049389;28;20131;-72
2022/03/05 07:33:28;;;;;;;14.27;6.72;;;-0.30;99.90;;;;;;5051813;28;21123;-71
2022/03/05 07:35:54;;;;;;;12.55;6.03;;;-0.20;99.90;;;;;;5050154;28;20049;-72
2022/03/05 07:38:20;;;;;;;14.20;6.28;;;-0.20;99.90;;;;;;5051906;28;20029;-72
2022/03/05 07:40:46;;;;;;;14.02;6.88;;;0.00;99.90;;;;;;5043397;28;20410;-71
2022/03/05 07:43:14;;;;;;;12.40;6.22;;;0.10;99.90;;;;;;5015574;28;20540;-72
2022/03/05 07:45:40;;;;;;;10.98;5.97;;;0.20;99.90;;;;;;5048898;28;20481;-72
2022/03/05 07:48:05;;;;;;;13.23;6.97;;;0.40;99.90;;;;;;5033644;28;20056;-72
2022/03/05 07:50:31;;;;;;;14.63;7.25;;;0.50;99.90;;;;;;5051659;28;20123;-72
2022/03/05 07:52:57;;;;;;;12.05;6.55;;;0.50;99.90;;;;;;5034752;28;20473;-72
2022/03/05 07:55:23;;;;;;;15.55;6.70;;;0.60;99.90;;;;;;5048986;28;20071;-72
2022/03/05 07:57:49;;;;;;;15.02;6.78;;;0.90;99.90;;;;;;5051713;28;20131;-72
2022/03/05 08:00:14;;;;;;;15.27;7.00;;;0.90;99.90;;;;;;5050656;28;20040;-72
2022/03/05 08:02:40;;;;;;;13.95;6.80;;;0.80;99.90;;;;;;5034015;28;20496;-72
2022/03/05 08:05:06;;;;;;;14.05;7.70;;;0.90;99.90;;;;;;5050739;28;20040;-72
2022/03/05 08:07:32;;;;;;;14.63;7.50;;;0.90;99.90;;;;;;5050822;28;20083;-72
2022/03/05 08:09:57;;;;;;;14.60;7.35;;;1.00;99.90;;;;;;5055677;28;20072;-73
2022/03/05 08:12:23;;;;;;;14.63;7.80;;;1.10;99.90;;;;;;5054709;28;20485;-72
2022/03/05 08:14:49;;;;;;;14.77;7.80;;;1.20;99.90;;;;;;5054656;28;20050;-73
2022/03/05 08:17:14;;;;;;;13.15;7.05;;;1.30;99.90;;;;;;5053958;28;20120;-72
2022/03/05 08:19:41;;;;;;;13.68;7.35;;;1.40;99.90;;;;;;5054421;28;20033;-73
2022/03/05 08:22:06;;;;;;;15.32;8.40;;;1.40;99.90;;;;;;5071392;28;20047;-72
2022/03/05 08:24:32;;;;;;;15.85;8.07;;;1.50;99.90;;;;;;5054731;28;20036;-73
2022/03/05 08:26:58;;;;;;;14.35;7.93;;;1.40;99.90;;;;;;5019010;28;20512;-72
2022/03/05 08:29:24;;;;;;;17.08;7.75;;;1.50;99.90;;;;;;5018884;28;20041;-73
2022/03/05 08:31:50;;;;;;;15.32;7.15;;;1.60;99.90;;;;;;5053779;28;20497;-72
2022/03/05 08:34:15;;;;;;;14.43;7.22;;;1.80;99.90;;;;;;5036330;28;20056;-74
2022/03/05 08:36:41;;;;;;;13.45;8.00;;;1.80;99.90;;;;;;5052944;28;20589;-73
2022/03/05 08:39:06;;;;;;;16.85;8.90;;;1.90;99.90;;;;;;5069273;28;20095;-73
2022/03/05 08:41:32;;;;;;;14.63;7.85;;;2.00;99.90;;;;;;5068794;28;20041;-73
2022/03/05 08:43:57;;;;;;;15.18;8.38;;;2.10;99.90;;;;;;5065522;28;20083;-73
2022/03/05 08:46:23;;;;;;;13.52;8.07;;;2.40;99.90;;;;;;5048152;28;20037;-72
2022/03/05 08:48:48;;;;;;;15.65;8.38;;;2.70;99.90;;;;;;5065074;28;20055;-73
2022/03/05 08:51:14;;;;;;;17.42;8.90;;;2.70;99.90;;;;;;5053739;28;20079;-72
2022/03/05 08:53:40;;;;;;;15.82;8.65;;;2.70;99.90;;;;;;5049982;28;20032;-73
2022/03/05 08:56:05;;;;;;;16.83;7.95;;;2.70;99.90;;;;;;5052740;28;20041;-72
2022/03/05 08:58:31;;;;;;;16.15;8.35;;;3.00;99.90;;;;;;5070276;28;20037;-73
2022/03/05 09:00:59;;;;;;;15.75;8.13;;;3.10;99.90;;;;;;5071004;28;20044;-72
2022/03/05 09:03:25;;;;;;;14.82;8.30;;;3.20;99.90;;;;;;5036662;28;20033;-72
2022/03/05 09:05:51;;;;;;;17.77;9.20;;;3.50;99.90;;;;;;5054275;28;20037;-72
2022/03/05 09:08:17;;;;;;;15.30;8.15;;;3.40;99.90;;;;;;5037155;28;20033;-72
2022/03/05 09:10:43;;;;;;;16.35;8.32;;;3.70;99.90;;;;;;5052416;28;20558;-72
2022/03/05 09:13:08;;;;;;;13.73;6.63;;;3.90;99.90;;;;;;5049969;28;20258;-72
2022/03/05 09:15:34;;;;;;;16.30;8.13;;;4.10;99.90;;;;;;5053281;28;20086;-72
2022/03/05 09:17:59;;;;;;;14.52;7.28;;;4.10;99.90;;;;;;5052991;28;20029;-72
2022/03/05 09:20:25;;;;;;;15.13;8.75;;;4.20;99.90;;;;;;5052383;28;20175;-72
2022/03/05 09:22:51;;;;;;;17.15;9.80;;;4.30;99.90;;;;;;5054256;28;20040;-72
2022/03/05 09:25:16;;;;;;;15.93;8.18;;;4.10;99.90;;;;;;5053504;28;20470;-72
2022/03/05 09:27:42;;;;;;;17.05;9.00;;;4.10;99.90;;;;;;5037382;28;20477;-72
2022/03/05 09:30:08;;;;;;;17.25;9.70;;;4.10;99.90;;;;;;5028630;28;20054;-72
2022/03/05 09:32:33;;;;;;;16.30;8.30;;;4.00;99.90;;;;;;5051176;28;20115;-72
2022/03/05 09:35:00;;;;;;;19.08;9.50;;;3.90;99.90;;;;;;5051729;28;20576;-72
2022/03/05 09:37:30;;;;;;;18.17;9.68;;;4.30;99.90;;;;;;5049808;28;20082;-72
2022/03/05 09:39:56;;;;;;;18.05;9.00;;;4.20;99.90;;;;;;5051749;28;20490;-72
2022/03/05 09:42:21;;;;;;;16.85;9.05;;;4.30;99.90;;;;;;5035909;28;20040;-72
2022/03/05 09:44:47;;;;;;;17.00;9.98;;;4.60;99.90;;;;;;5051584;28;20037;-72
2022/03/05 09:47:13;;;;;;;17.88;8.70;;;4.60;99.90;;;;;;5034273;28;20351;-72
2022/03/05 09:49:39;;;;;;;19.23;9.27;;;4.60;99.90;;;;;;5049643;28;20049;-72
2022/03/05 09:52:06;;;;;;;16.42;8.27;;;4.60;99.90;;;;;;5039123;28;20512;-72
2022/03/05 09:54:32;;;;;;;18.55;9.43;;;4.80;99.90;;;;;;5046548;28;20509;-72
2022/03/05 09:56:58;;;;;;;18.08;9.68;;;5.20;99.90;;;;;;5051917;28;20037;-73
2022/03/05 09:59:24;;;;;;;18.27;9.35;;;5.30;99.90;;;;;;5053075;28;20064;-72
2022/03/05 10:01:51;;;;;;;15.70;7.72;;;5.30;99.90;;;;;;5049383;28;20047;-72
2022/03/05 10:04:19;;;;;;;17.48;10.18;;;5.50;99.90;;;;;;5048405;28;20037;-72
2022/03/05 10:06:45;;;;;;;16.95;9.40;;;5.40;99.90;;;;;;5048318;28;20037;-72
2022/03/05 10:09:22;;;;;;;17.10;9.10;;;5.50;99.90;;;;;;5065147;28;20555;-72
2022/03/05 10:11:48;;;;;;;18.80;10.40;;;5.70;99.90;;;;;;5065698;28;20123;-72
2022/03/05 10:14:17;;;;;;;17.75;10.23;;;5.80;98.10;;;;;;5053428;28;20077;-73
2022/03/05 10:16:43;;;;;;;17.33;8.00;;;5.50;98.90;;;;;;5050371;28;20120;-73
2022/03/05 10:19:17;;;;;;;22.00;11.45;;;5.40;99.90;;;;;;5050007;28;20119;-72
2022/03/05 10:21:56;;;;;;;18.42;9.25;;;5.60;99.90;;;;;;5051446;28;20147;-72
2022/03/05 10:24:33;;;;;;;16.98;8.68;;;5.40;99.90;;;;;;5051985;28;20456;-73
2022/03/05 10:26:59;;;;;;;18.10;8.95;;;5.60;99.90;;;;;;5051202;28;20112;-72
2022/03/05 10:29:34;;;;;;;18.95;10.13;;;5.80;99.90;;;;;;5049895;28;20124;-72
2022/03/05 10:32:10;;;;;;;21.10;11.05;;;6.10;99.40;;;;;;5051925;28;20127;-72
2022/03/05 10:34:41;;;;;;;20.23;10.65;;;5.90;99.50;;;;;;5051933;28;20057;-72
2022/03/05 10:37:08;;;;;;;19.38;10.70;;;6.00;99.90;;;;;;5048540;28;20045;-72
2022/03/05 10:39:34;;;;;;;19.55;9.38;;;6.10;99.90;;;;;;5046738;28;20048;-72
2022/03/05 10:42:00;;;;;;;19.85;10.98;;;6.00;99.90;;;;;;5048897;28;20025;-72
2022/03/05 10:44:25;;;;;;;21.35;10.07;;;6.20;99.60;;;;;;5049621;28;20550;-72
2022/03/05 10:47:00;;;;;;;19.73;10.98;;;6.20;99.70;;;;;;5049627;28;20041;-72
2022/03/05 10:49:44;;;;;;;22.30;11.32;;;6.40;99.40;;;;;;5051951;28;20047;-72
2022/03/05 10:52:10;;;;;;;16.10;8.48;;;6.30;99.90;;;;;;5051559;28;20045;-72
2022/03/05 10:54:39;;;;;;;19.40;11.13;;;6.60;98.90;;;;;;5033125;28;20044;-73
2022/03/05 10:57:21;;;;;;;18.55;10.40;;;6.60;98.50;;;;;;5034340;28;20064;-72
2022/03/05 10:59:54;;;;;;;20.07;11.43;;;6.50;98.20;;;;;;5046890;28;20041;-72
2022/03/05 11:02:21;;;;;;;22.05;10.20;;;6.30;97.20;;;;;;5034311;28;20040;-72
2022/03/05 11:04:48;;;;;;;21.27;11.60;;;6.40;99.40;;;;;;5048412;28;20120;-73
2022/03/05 11:07:19;;;;;;;19.83;11.27;;;6.10;96.90;;;;;;5050392;28;20432;-72
2022/03/05 11:09:47;;;;;;;22.00;11.53;;;6.10;98.40;;;;;;5049178;28;20155;-72
2022/03/05 11:12:18;;;;;;;20.38;11.43;;;6.20;98.40;;;;;;5050934;28;20029;-73
2022/03/05 11:14:48;;;;;;;20.10;11.15;;;6.30;98.80;;;;;;5050756;28;20032;-72
2022/03/05 11:17:14;;;;;;;19.33;10.07;;;6.40;99.40;;;;;;5050633;28;20044;-73
2022/03/05 11:19:40;;;;;;;21.40;11.32;;;6.70;97.30;;;;;;5050047;28;20054;-73
2022/03/05 11:22:08;;;;;;;14.38;7.20;;;6.60;97.50;;;;;;5035265;28;20044;-72
2022/03/05 11:24:34;;;;;;;23.55;11.27;;;6.80;97.30;;;;;;5040801;28;20124;-72
2022/03/05 11:27:00;;;;;;;20.88;11.57;;;6.70;96.60;;;;;;5015276;28;20545;-72
2022/03/05 11:29:27;;;;;;;22.50;12.40;;;6.80;96.50;;;;;;5032458;28;20517;-72
2022/03/05 11:32:10;;;;;;;26.70;14.00;;;6.70;97.90;;;;;;5068529;28;20049;-73
2022/03/05 11:34:52;;;;;;;20.38;10.77;;;6.70;94.40;;;;;;5028444;28;20050;-72
2022/03/05 11:37:38;;;;;;;20.73;11.50;;;7.00;96.10;;;;;;5031568;28;20048;-72
2022/03/05 11:40:06;;;;;;;21.35;11.43;;;7.10;94.80;;;;;;5049875;28;20037;-72
2022/03/05 11:42:34;;;;;;;24.33;12.85;;;7.00;95.20;;;;;;5050691;28;20041;-73
2022/03/05 11:45:20;;;;;;;26.13;12.10;;;6.60;92.70;;;;;;5051021;28;20032;-73
2022/03/05 11:47:45;;;;;;;20.08;12.10;;;6.60;94.80;;;;;;5050115;28;20045;-73
2022/03/05 11:50:13;;;;;;;19.60;10.95;;;6.70;93.90;;;;;;5050115;28;20401;-72
2022/03/05 11:52:39;;;;;;;22.23;13.18;;;6.60;96.30;;;;;;5050538;28;20124;-73
2022/03/05 11:55:10;;;;;;;21.58;12.40;;;6.60;93.40;;;;;;5033816;28;20163;-73
2022/03/05 11:58:02;;;;;;;21.98;11.10;;;6.70;96.00;;;;;;5035568;28;20116;-73
2022/03/05 12:00:31;;;;;;;21.88;10.30;;;7.00;94.30;;;;;;5034785;28;20037;-73
2022/03/05 12:02:58;;;;;;;24.38;12.20;;;7.10;92.80;;;;;;5051930;28;20610;-72
2022/03/05 12:05:33;;;;;;;21.58;12.32;;;7.10;93.90;;;;;;5049682;28;20397;-72
2022/03/05 12:07:59;;;;;;;23.58;11.95;;;6.90;95.10;;;;;;5041997;28;20489;-73
2022/03/05 12:10:25;;;;;;;20.70;10.88;;;7.10;95.40;;;;;;5065703;28;20057;-73
2022/03/05 12:13:06;;;;;;;23.23;12.57;;;7.10;93.60;;;;;;5047462;28;20494;-73
2022/03/05 12:15:33;;;;;;;21.38;11.50;;;7.20;92.60;;;;;;5052854;28;20044;-73
2022/03/05 12:18:02;;;;;;;19.05;10.73;;;7.20;93.40;;;;;;5048869;28;20056;-73
2022/03/05 12:20:34;;;;;;;20.33;12.48;;;7.20;93.50;;;;;;5046802;28;21015;-73
2022/03/05 12:23:02;;;;;;;20.27;11.13;;;7.10;92.90;;;;;;5064704;28;20029;-73
2022/03/05 12:25:35;;;;;;;23.85;12.20;;;7.20;91.70;;;;;;5050304;28;20037;-74
2022/03/05 12:28:02;;;;;;;22.67;12.35;;;7.10;93.20;;;;;;5051465;28;20045;-72
2022/03/05 12:30:38;;;;;;;22.02;11.75;;;7.20;92.40;;;;;;5051013;28;20044;-73
2022/03/05 12:33:09;;;;;;;22.25;12.43;;;7.10;92.30;;;;;;5050866;28;20040;-73
2022/03/05 12:35:35;;;;;;;22.10;12.32;;;7.00;92.80;;;;;;5051276;28;20057;-73
2022/03/05 12:38:01;;;;;;;22.75;12.13;;;7.10;92.90;;;;;;5047712;28;20529;-73